Genthin, Germany

1:57 AM CEST on August 02, 2014 (GMT +0200)
lowor's Wetter (IBRANDEN44) Elev 148 ft | 52.51 °N, 12.31 °E | Change Station

Current weather conditions updated 9 seconds ago

Clear
Clear
66.9 °F
Feels Like 66.9 °F
N
0.0
Wind Variable Wind from SSW
Gusts 0.0 mph

Today is forecast to be Cooler than yesterday.

Today
High -- | Low -- °F
--% Chance of Precip.
Yesterday
High -- | Low -- °F
Precip. -- in
5:32 AM 9:01 PM
Waxing Crescent, 30% visible
Pressure 29.89 in
Visibility -9999.0 miles
Clouds
Dew Point 61 °F
Humidity 82%
Rainfall 0.00 in
Snow Depth Not available.
UV 0.0 out of 12
Pollen Not available.
Air Quality Not available.
Flu Activity Not available.
METAR EDDT 012350Z 12008KT CAVOK 22/14 Q1012

More Conditions Fewer Conditions

Pressure 29.89 in
Visibility -9999.0 miles
Clouds
Dew Point 61 °F
Humidity 82%
Rainfall 0.00 in
Snow Depth Not available.
UV 0.0 out of 12
Pollen Not available.
Air Quality Not available.
Flu Activity Not available.
METAR EDDT 012350Z 12008KT CAVOK 22/14 Q1012

More Conditions Fewer Conditions

10-Day Weather Forecast

Almanac

Astronomy

Aug. 02, 2014 Rise Set
Actual Time 5:32 AM CEST 9:01 PM CEST
Civil Twilight 4:51 AM CEST 9:42 PM CEST
Nautical Twilight 3:54 AM CEST 10:38 PM CEST
Astronomical Twilight 2:31 AM CEST 11:59 PM CEST
Moon 12:31 PM CEST (8/2) 11:13 PM CEST (8/2)
Length of Visible Light 16h 51m
Length of Day
15h 28m
Tomorrow will be 3m 19s shorter.
Waxing Crescent, 30% of the Moon is Illuminated
Aug 1
Waxing Crescent
Aug 3
First Quarter
Aug 10
Full
Aug 17
Last Quarter
Aug 25
New

Yesterday's Extremes

Country Highs Country Lows

Community

WunderPhotos

Upload Photos

1,739,759 photos uploaded!

Nearby

Snow Depth

Not available.

Earthquake Activity

City Distance Mag. Time & Date
No recent earthquake activity has been reported nearby.
Minimum magnitude displayed is 2.5.

Coastal Water Temperatures

Place Temperature
No Stations Reporting

Nearby Weather Stations

Station Location Temp. Dew Point Humidity Wind Precip. Elev Updated Type
lowor's Wetter, Milower Land 66.9 °F 61 °F 82% SSW  at  0.0 mph 0.00 in / hr 148 ft 1:57 AM CEST Rapid Fire
Nennhausen 68.7 °F 60 °F 73% East  at  2.9 mph 0.00 in / hr 88 ft 1:00 AM CEST Normal
Jerichower Land, Koerbelitz 67.4 °F 62 °F 82% SE  at  0.0 mph 0.00 in / hr 223 ft 1:51 AM CEST Normal

Show More Stations Show Fewer Stations